Iacsonvilla, FL (32257)

10:20 PM EDT die 24o July, anno 2016 (GMT -0400)
Spanish Wells | | Change Station

Elev 26 ft 30.21 °N, 81.61 °W | Updated 21 seconds ago

Partly Cloudy
Partialiter Nubila
82.9 °F
Feels Like 87 °F
N
0.0
Ventus Variabilis Ventus from Zephyrus

Hodie
High -- | Low -- °F
--% Chance of Precip.
Yesterday
High -- | Low -- °F
Precip. -- in
Pressio 30.04 in
Visibilitas 10.0 milia passuum
Clouds Few 25000 ft
Index Caloris 87 °F
Frigus in quo Ros apparet 71 °F
Umor 67%
Rainfall 0.00 in
Snow Depth Not available.
6:40 AM 8:24 PM
Waning Gibbous, 71% visible
METAR KNIP 250153Z 15010KT 10SM FEW250 30/22 A3005 RMK AO2 SLP171 T03000217 $
Pressio 30.04 in
Visibilitas 10.0 milia passuum
Clouds Few 25000 ft
Index Caloris 87 °F
Frigus in quo Ros apparet 71 °F
Umor 67%
Rainfall 0.00 in
Snow Depth Not available.
6:40 AM 8:24 PM
Waning Gibbous, 71% visible
METAR KNIP 250153Z 15010KT 10SM FEW250 30/22 A3005 RMK AO2 SLP171 T03000217 $

10-Day Weather Forecast

Almanac

Astronomy

Jul. 24, 2016 Rise Set
Actual Time
Civil Twilight
Nautical Twilight
Astronomical Twilight
Moon
Length Of Visible Light
Length of Day
Tomorrow will be .
, % of the Moon is Illuminated

Today's Extremes

State Highs State Lows

Community

WunderPhotos

Upload Photos

1,927,243 photos uploaded!

WunderBlog® & News

Nearby

Air Quality

  Air Quality AQ Index Pollutant
Not available.

Snow Depth

Station Depth Elevation

Earthquake Activity

City Distance Mag. Time & Date
Minimum magnitude displayed is 2.5.

Coastal Water Temperatures

Locus Calor

Stations

Nearby Weather Stations

Station Location Temp Frigus Venti Frigus in quo Ros apparet Umor Ventus Precip. Elev Renovata Type
                   

Watches & Warnings

There are currently no watches in effect.